Time;durP1;ratioP1;P1;durP2;ratioP2;P2;SDS_P1;SDS_P2;PMS_P1;PMS_P2;Temp;Humidity;BMP_temperature;BMP_pressure;BME280_temperature;BME280_humidity;BME280_pressure;Samples;Min_cycle;Max_cycle;Signal;HPM_P1;HPM_P2
2022/01/27 00:06:39;;;;;;;56.00;23.00;;;3.30;99.90;;;;;;5075984;28;20573;-56
2022/01/27 00:09:20;;;;;;;62.13;25.07;;;3.40;1.00;;;;;;5089241;28;20232;-54
2022/01/27 00:11:47;;;;;;;52.53;22.40;;;3.40;99.90;;;;;;5076538;28;20449;-54
2022/01/27 00:14:15;;;;;;;59.50;24.87;;;3.40;99.90;;;;;;5090681;28;20542;-54
2022/01/27 00:16:44;;;;;;;48.37;21.57;;;3.40;99.90;;;;;;5093414;28;20590;-54
2022/01/27 00:19:11;;;;;;;58.57;23.60;;;3.40;99.90;;;;;;5094271;28;20417;-54
2022/01/27 00:21:37;;;;;;;58.27;22.33;;;3.50;99.90;;;;;;5090091;28;20433;-57
2022/01/27 00:24:03;;;;;;;50.53;22.00;;;3.40;99.90;;;;;;5074579;28;20851;-54
2022/01/27 00:26:29;;;;;;;63.37;23.30;;;3.40;1.00;;;;;;5086095;28;20421;-54
2022/01/27 00:28:54;;;;;;;47.03;21.90;;;3.40;89.10;;;;;;5094197;28;20808;-54
2022/01/27 00:31:21;;;;;;;57.27;22.80;;;3.40;99.90;;;;;;5094236;28;20732;-54
2022/01/27 00:33:48;;;;;;;42.83;21.27;;;3.40;99.90;;;;;;5093844;28;20247;-54
2022/01/27 00:36:14;;;;;;;47.43;21.90;;;3.40;99.90;;;;;;5082150;28;20438;-54
2022/01/27 00:38:39;;;;;;;45.67;22.13;;;3.40;99.90;;;;;;5071359;28;20446;-54
2022/01/27 00:41:05;;;;;;;42.17;19.23;;;3.40;99.90;;;;;;5075136;28;20457;-54
2022/01/27 00:43:31;;;;;;;44.23;20.93;;;3.40;99.90;;;;;;5086291;28;20187;-54
2022/01/27 00:45:57;;;;;;;35.93;19.63;;;3.40;1.00;;;;;;5094006;28;20195;-54
2022/01/27 00:48:23;;;;;;;44.13;20.70;;;3.50;1.00;;;;;;5093670;28;20457;-54
2022/01/27 00:50:54;;;;;;;44.87;19.87;;;3.50;1.00;;;;;;5085520;28;20445;-54
2022/01/27 00:53:33;;;;;;;43.10;20.80;;;3.50;1.00;;;;;;5092396;28;20535;-54
2022/01/27 00:56:11;;;;;;;45.10;21.47;;;3.50;1.00;;;;;;5084516;28;20521;-54
2022/01/27 00:58:50;;;;;;;34.43;18.30;;;3.50;1.00;;;;;;5086680;28;20418;-54
2022/01/27 01:01:19;;;;;;;51.03;21.33;;;3.50;99.90;;;;;;5085215;28;20422;-54
2022/01/27 01:03:48;;;;;;;38.93;19.33;;;3.50;99.90;;;;;;5075401;28;21143;-54
2022/01/27 01:06:32;;;;;;;47.37;21.60;;;3.50;99.90;;;;;;5091838;28;20452;-54
2022/01/27 01:29:21;;;;;;;51.80;23.03;;;3.50;1.00;;;;;;5087002;28;20191;-54
2022/01/27 01:30:49;;;;;;;51.53;24.40;;;3.60;1.00;;;;;;5030440;28;20435;-54
2022/01/27 01:33:21;;;;;;;49.13;23.50;;;3.60;99.90;;;;;;5076613;28;20422;-54
2022/01/27 01:36:00;;;;;;;50.67;22.77;;;3.60;99.90;;;;;;5074627;28;20799;-54
2022/01/27 01:38:26;;;;;;;53.60;24.20;;;3.50;99.90;;;;;;5093188;28;20842;-54
2022/01/27 01:40:53;;;;;;;60.43;25.10;;;3.50;99.90;;;;;;5084023;28;20758;-54
2022/01/27 01:43:20;;;;;;;49.50;24.87;;;3.50;99.90;;;;;;5086840;28;20477;-54
2022/01/27 01:45:47;;;;;;;60.23;25.57;;;3.50;99.90;;;;;;5092844;28;20450;-54
2022/01/27 01:48:15;;;;;;;69.80;29.60;;;3.50;99.90;;;;;;5075292;28;20948;-54
2022/01/27 01:50:41;;;;;;;59.80;27.47;;;3.50;99.90;;;;;;5092290;28;20503;-55
2022/01/27 01:53:07;;;;;;;58.30;27.57;;;3.50;1.00;;;;;;5092137;28;20422;-54
2022/01/27 01:55:33;;;;;;;50.07;24.30;;;3.50;1.00;;;;;;5092439;28;20179;-54
2022/01/27 01:57:59;;;;;;;59.10;25.73;;;3.50;1.00;;;;;;5086107;28;20548;-54
2022/01/27 02:00:26;;;;;;;67.20;29.67;;;3.50;99.90;;;;;;5087930;28;20422;-55
2022/01/27 02:02:52;;;;;;;66.70;27.80;;;3.60;1.00;;;;;;5087587;28;20418;-54
2022/01/27 02:05:21;;;;;;;64.47;26.03;;;3.60;99.90;;;;;;5082799;28;20508;-54
2022/01/27 02:08:36;;;;;;;58.77;26.50;;;3.60;99.90;;;;;;5092080;28;20247;-54
2022/01/27 02:19:14;;;;;;;56.73;27.07;;;3.50;1.00;;;;;;5081308;28;20466;-54
2022/01/27 02:21:44;;;;;;;63.80;29.87;;;3.50;99.90;;;;;;5092060;28;20426;-54
2022/01/27 02:24:09;;;;;;;73.23;27.70;;;3.50;99.90;;;;;;5091886;28;20413;-54
2022/01/27 02:26:35;;;;;;;71.23;28.03;;;3.50;1.00;;;;;;5080945;28;20512;-54
2022/01/27 02:29:00;;;;;;;61.37;27.43;;;3.50;99.90;;;;;;5091993;28;20202;-54
2022/01/27 02:31:26;;;;;;;63.30;28.73;;;3.50;99.90;;;;;;5087672;28;20534;-54
2022/01/27 02:33:58;;;;;;;62.90;29.33;;;3.50;99.90;;;;;;5087051;28;20179;-54
2022/01/27 02:36:24;;;;;;;61.17;28.17;;;3.50;99.90;;;;;;5091794;28;20247;-54
2022/01/27 02:38:49;;;;;;;64.87;26.50;;;3.50;99.90;;;;;;5081821;28;20587;-54
2022/01/27 02:41:16;;;;;;;57.20;26.50;;;3.40;20.80;;;;;;5079214;28;20273;-55
2022/01/27 02:43:42;;;;;;;62.67;26.30;;;3.40;1.00;;;;;;5091104;28;20340;-54
2022/01/27 02:46:20;;;;;;;63.30;27.53;;;3.40;1.00;;;;;;5090895;28;20971;-54
2022/01/27 02:48:46;;;;;;;62.30;26.37;;;3.40;99.90;;;;;;5079226;28;20223;-54
2022/01/27 02:51:11;;;;;;;59.70;27.90;;;3.50;1.00;;;;;;5089186;28;20949;-54
2022/01/27 02:53:37;;;;;;;60.27;28.50;;;3.40;1.00;;;;;;5091797;28;20180;-54
2022/01/27 02:56:03;;;;;;;55.07;23.97;;;3.40;1.00;;;;;;5091654;28;20225;-55
2022/01/27 02:58:28;;;;;;;56.83;26.17;;;3.30;1.40;;;;;;5087699;28;20203;-54
2022/01/27 03:00:54;;;;;;;53.90;26.20;;;3.40;99.90;;;;;;5083986;28;20655;-54
2022/01/27 03:03:19;;;;;;;56.77;26.87;;;3.40;99.90;;;;;;5090385;28;20191;-55
2022/01/27 03:05:45;;;;;;;74.00;27.43;;;3.30;1.00;;;;;;5082257;28;20265;-55
2022/01/27 03:08:13;;;;;;;53.87;26.73;;;3.30;1.00;;;;;;5088965;28;20220;-55
2022/01/27 03:10:43;;;;;;;48.90;25.90;;;3.20;1.00;;;;;;5070947;28;20546;-55
2022/01/27 03:13:09;;;;;;;68.73;29.60;;;3.20;99.90;;;;;;5088899;28;20919;-55
2022/01/27 03:15:36;;;;;;;55.80;26.23;;;3.20;99.90;;;;;;5091294;28;20508;-55
2022/01/27 03:18:02;;;;;;;60.17;28.03;;;3.20;99.90;;;;;;5084569;28;20592;-55
2022/01/27 03:20:34;;;;;;;57.77;28.30;;;3.20;99.90;;;;;;5082004;28;20454;-55
2022/01/27 03:23:01;;;;;;;60.80;28.70;;;3.30;99.90;;;;;;5088286;28;20180;-55
2022/01/27 03:25:27;;;;;;;65.73;29.40;;;3.20;99.90;;;;;;5082829;28;20476;-55
2022/01/27 03:27:52;;;;;;;56.70;25.47;;;3.20;99.90;;;;;;5091142;28;20505;-55
2022/01/27 03:30:18;;;;;;;53.60;25.03;;;3.10;99.90;;;;;;5091006;28;20187;-55
2022/01/27 03:32:44;;;;;;;54.47;25.43;;;3.10;99.90;;;;;;5084598;28;20246;-55
2022/01/27 03:35:10;;;;;;;52.27;24.50;;;3.20;99.90;;;;;;5088630;28;20176;-55
2022/01/27 03:37:36;;;;;;;57.80;27.90;;;3.10;99.90;;;;;;5085428;28;20433;-55
2022/01/27 03:40:04;;;;;;;57.93;23.13;;;3.10;99.90;;;;;;5077522;28;20425;-55
2022/01/27 03:42:30;;;;;;;53.57;24.27;;;3.10;99.90;;;;;;5082885;28;20219;-55
2022/01/27 03:44:55;;;;;;;45.07;21.67;;;3.10;99.90;;;;;;5091052;28;20468;-55
2022/01/27 03:47:21;;;;;;;52.97;24.17;;;3.20;99.90;;;;;;5090875;28;20187;-55
2022/01/27 03:49:47;;;;;;;57.47;23.13;;;3.10;99.90;;;;;;5090863;28;20211;-55
2022/01/27 03:52:12;;;;;;;53.77;24.43;;;3.10;99.90;;;;;;5089276;28;20229;-55
2022/01/27 03:54:38;;;;;;;57.00;24.70;;;3.10;99.90;;;;;;5081798;28;20180;-55
2022/01/27 03:57:04;;;;;;;50.87;22.90;;;3.20;99.90;;;;;;5091480;28;20184;-55
2022/01/27 03:59:30;;;;;;;50.20;23.50;;;3.10;99.90;;;;;;5094979;28;20246;-55
2022/01/27 04:01:56;;;;;;;46.23;22.50;;;3.20;99.90;;;;;;5086127;28;20184;-55
2022/01/27 04:04:23;;;;;;;61.70;24.03;;;3.20;99.90;;;;;;5094684;28;20508;-55
2022/01/27 04:06:51;;;;;;;45.40;25.10;;;3.20;99.90;;;;;;5093785;28;20576;-55
2022/01/27 04:09:18;;;;;;;50.23;22.80;;;3.20;99.90;;;;;;5082959;28;20461;-55
2022/01/27 04:11:43;;;;;;;47.87;22.83;;;3.20;99.90;;;;;;5068728;28;20686;-55
2022/01/27 04:14:10;;;;;;;50.53;23.40;;;3.20;99.90;;;;;;5086138;28;21006;-55
2022/01/27 04:16:36;;;;;;;49.80;22.30;;;3.20;99.90;;;;;;5094312;28;20172;-55
2022/01/27 04:19:02;;;;;;;54.07;21.13;;;3.20;99.90;;;;;;5082187;28;20828;-55
2022/01/27 04:21:28;;;;;;;49.37;22.73;;;3.30;99.90;;;;;;5075699;28;20430;-55
2022/01/27 04:23:54;;;;;;;54.73;22.30;;;3.20;99.90;;;;;;5081055;28;20188;-55
2022/01/27 04:26:25;;;;;;;49.90;23.63;;;3.20;99.90;;;;;;5084895;28;20787;-55
2022/01/27 04:28:52;;;;;;;46.53;22.70;;;3.30;99.90;;;;;;5094067;28;20227;-55
2022/01/27 04:31:18;;;;;;;57.20;24.33;;;3.30;99.90;;;;;;5094058;28;20418;-56
2022/01/27 04:33:43;;;;;;;46.87;20.87;;;3.30;99.90;;;;;;5081933;28;20417;-55
2022/01/27 04:36:25;;;;;;;56.80;23.97;;;3.20;99.90;;;;;;5093766;28;20182;-55
2022/01/27 04:38:58;;;;;;;45.27;20.50;;;3.30;99.90;;;;;;5093763;28;20183;-55
2022/01/27 04:41:49;;;;;;;48.20;22.03;;;3.20;99.90;;;;;;5083676;28;20430;-55
2022/01/27 04:44:27;;;;;;;52.73;22.40;;;3.30;99.90;;;;;;5093422;28;20426;-55
2022/01/27 04:47:01;;;;;;;54.63;24.90;;;3.30;99.90;;;;;;5092390;28;20433;-55
2022/01/27 04:49:26;;;;;;;58.67;21.27;;;3.30;99.90;;;;;;5085274;28;20453;-55
2022/01/27 04:51:52;;;;;;;45.50;21.77;;;3.20;99.90;;;;;;5074328;28;20437;-56
2022/01/27 04:54:27;;;;;;;45.70;21.17;;;3.20;99.90;;;;;;5092483;28;20618;-55
2022/01/27 04:56:53;;;;;;;64.83;21.83;;;3.20;99.90;;;;;;5093332;28;20455;-55
2022/01/27 04:59:24;;;;;;;53.77;22.83;;;3.20;99.90;;;;;;5084225;28;20434;-56
2022/01/27 05:01:56;;;;;;;50.13;22.40;;;3.30;99.90;;;;;;5083530;28;20436;-56
2022/01/27 05:04:25;;;;;;;44.80;20.67;;;3.30;99.90;;;;;;5084871;28;20946;-55
2022/01/27 05:06:51;;;;;;;40.77;21.30;;;3.30;99.90;;;;;;5093256;28;20426;-56
2022/01/27 05:09:17;;;;;;;49.70;22.50;;;3.30;99.90;;;;;;5093331;28;20495;-55
2022/01/27 05:12:35;;;;;;;44.40;21.33;;;3.30;99.90;;;;;;5082591;28;20437;-55
2022/01/27 05:14:29;;;;;;;54.43;24.40;;;3.30;99.90;;;;;;5070016;28;20426;-55
2022/01/27 05:16:54;;;;;;;46.97;23.37;;;3.40;99.90;;;;;;5081436;28;20434;-55
2022/01/27 05:19:20;;;;;;;53.57;24.20;;;3.30;99.90;;;;;;5092385;28;20180;-55
2022/01/27 05:21:46;;;;;;;46.50;22.57;;;3.40;99.90;;;;;;5093185;28;20187;-56
2022/01/27 05:24:12;;;;;;;53.60;23.73;;;3.40;99.90;;;;;;5093152;28;20437;-56
2022/01/27 05:26:38;;;;;;;49.57;22.03;;;3.30;99.90;;;;;;5085120;28;20183;-55
2022/01/27 05:29:04;;;;;;;55.57;23.03;;;3.30;99.90;;;;;;5084566;28;20935;-55
2022/01/27 05:31:30;;;;;;;52.87;23.00;;;3.40;99.90;;;;;;5093104;28;20262;-55
2022/01/27 05:33:56;;;;;;;46.50;22.63;;;3.40;99.90;;;;;;5092875;28;20544;-55
2022/01/27 05:36:22;;;;;;;53.50;23.70;;;3.40;99.90;;;;;;5093108;28;20209;-55
2022/01/27 05:38:47;;;;;;;49.17;22.70;;;3.40;99.90;;;;;;5092927;28;20179;-56
2022/01/27 05:41:15;;;;;;;51.23;22.03;;;3.50;99.90;;;;;;5090955;28;20495;-56
2022/01/27 05:43:41;;;;;;;45.80;21.80;;;3.40;99.90;;;;;;5089339;28;20564;-56
2022/01/27 05:46:07;;;;;;;42.03;19.77;;;3.30;99.90;;;;;;5083871;28;20579;-55
2022/01/27 05:48:32;;;;;;;48.17;21.83;;;3.40;99.90;;;;;;5077609;28;20544;-55
2022/01/27 05:50:59;;;;;;;50.07;23.27;;;3.40;99.90;;;;;;5092658;28;20637;-56
2022/01/27 05:53:25;;;;;;;41.90;22.13;;;3.40;99.90;;;;;;5084240;28;20184;-55
2022/01/27 05:55:51;;;;;;;45.43;21.00;;;3.40;99.90;;;;;;5092410;28;20425;-55
2022/01/27 05:58:17;;;;;;;43.30;21.87;;;3.30;99.90;;;;;;5089484;28;20459;-55
2022/01/27 06:00:42;;;;;;;46.77;21.47;;;3.30;99.90;;;;;;5081559;28;20195;-56
2022/01/27 06:03:08;;;;;;;42.03;19.50;;;3.40;99.90;;;;;;5081556;28;20587;-55
2022/01/27 06:05:34;;;;;;;43.33;21.63;;;3.50;99.90;;;;;;5088349;28;20191;-56
2022/01/27 06:08:00;;;;;;;44.90;23.60;;;3.50;99.90;;;;;;5083294;28;20231;-55
2022/01/27 06:10:25;;;;;;;59.33;23.00;;;3.50;99.90;;;;;;5076312;28;20196;-55
2022/01/27 06:12:53;;;;;;;48.90;20.87;;;3.50;99.90;;;;;;5078553;28;20547;-57
2022/01/27 06:15:24;;;;;;;49.33;23.40;;;3.60;76.80;;;;;;5091562;28;20873;-55
2022/01/27 06:17:49;;;;;;;43.90;20.63;;;3.60;99.90;;;;;;5088214;28;20476;-56
2022/01/27 06:20:17;;;;;;;41.47;20.83;;;3.60;99.90;;;;;;5072225;28;20427;-55
2022/01/27 06:22:43;;;;;;;42.70;20.30;;;3.60;99.90;;;;;;5093198;28;20183;-55
2022/01/27 06:25:10;;;;;;;39.17;18.50;;;3.70;99.90;;;;;;5073838;28;20432;-57
2022/01/27 06:27:36;;;;;;;47.13;21.70;;;3.70;99.90;;;;;;5074898;28;20453;-58
2022/01/27 06:30:05;;;;;;;40.63;20.67;;;3.70;99.90;;;;;;5092782;28;20453;-57
2022/01/27 06:32:31;;;;;;;45.63;21.40;;;3.70;99.90;;;;;;5083945;28;20481;-56
2022/01/27 06:34:57;;;;;;;43.30;20.67;;;3.70;99.90;;;;;;5091611;28;20414;-58
2022/01/27 06:37:23;;;;;;;38.00;21.10;;;3.70;99.90;;;;;;5082517;28;20432;-57
2022/01/27 06:39:48;;;;;;;41.17;20.43;;;3.70;99.90;;;;;;5090950;28;20184;-56
2022/01/27 06:42:14;;;;;;;41.43;21.70;;;3.80;99.90;;;;;;5078706;28;20228;-57
2022/01/27 06:44:40;;;;;;;46.53;20.20;;;3.80;99.90;;;;;;5091323;28;20179;-59
2022/01/27 06:47:06;;;;;;;36.23;18.87;;;3.80;99.90;;;;;;5085910;28;20187;-56
2022/01/27 06:49:31;;;;;;;44.63;21.00;;;3.80;99.90;;;;;;5077987;28;20553;-57
2022/01/27 06:51:57;;;;;;;40.10;20.87;;;3.80;99.90;;;;;;5072060;28;20225;-57
2022/01/27 06:54:22;;;;;;;36.50;20.57;;;3.90;99.90;;;;;;5076557;28;20205;-57
2022/01/27 06:56:48;;;;;;;35.77;19.13;;;3.90;99.90;;;;;;5082185;28;20189;-56
2022/01/27 06:59:14;;;;;;;48.17;20.80;;;3.80;99.90;;;;;;5077645;28;20199;-56
2022/01/27 07:01:40;;;;;;;42.07;22.33;;;3.90;99.90;;;;;;5077872;28;20179;-56
2022/01/27 07:04:06;;;;;;;40.53;20.70;;;3.90;99.90;;;;;;5089058;28;20438;-56
2022/01/27 07:06:35;;;;;;;39.57;20.23;;;3.90;99.90;;;;;;5080560;28;20550;-55
2022/01/27 07:09:01;;;;;;;42.67;21.40;;;3.90;99.90;;;;;;5077822;28;20990;-57
2022/01/27 07:11:27;;;;;;;50.70;20.70;;;4.00;99.90;;;;;;5084611;28;20411;-57
2022/01/27 07:13:53;;;;;;;40.93;18.47;;;4.00;99.90;;;;;;5080113;28;20410;-57
2022/01/27 07:16:18;;;;;;;43.43;19.30;;;4.10;99.90;;;;;;5077265;28;20732;-55
2022/01/27 07:18:44;;;;;;;41.50;19.60;;;4.10;99.90;;;;;;5082725;28;20184;-53
2022/01/27 07:21:09;;;;;;;45.20;20.63;;;4.10;99.90;;;;;;5082384;28;20582;-54
2022/01/27 07:23:35;;;;;;;44.27;20.63;;;4.20;99.90;;;;;;5086759;28;20662;-55
2022/01/27 07:26:01;;;;;;;35.93;20.50;;;4.20;99.90;;;;;;5089886;28;20228;-55
2022/01/27 07:28:27;;;;;;;43.40;20.23;;;4.20;99.90;;;;;;5087184;28;20230;-55
2022/01/27 07:30:52;;;;;;;47.97;20.50;;;4.20;1.00;;;;;;5090084;28;20245;-55
2022/01/27 07:33:18;;;;;;;52.20;20.30;;;4.20;1.00;;;;;;5093854;28;20191;-55
2022/01/27 07:35:43;;;;;;;38.60;19.57;;;4.20;1.00;;;;;;5093116;28;20179;-55
2022/01/27 07:38:09;;;;;;;36.47;19.30;;;4.20;85.50;;;;;;5093435;28;20259;-56
2022/01/27 07:40:35;;;;;;;44.77;20.90;;;4.30;99.90;;;;;;5091926;28;20176;-56
2022/01/27 07:43:01;;;;;;;46.70;20.97;;;4.20;99.90;;;;;;5075378;28;20188;-56
2022/01/27 07:45:27;;;;;;;55.40;20.63;;;4.20;41.00;;;;;;5094138;28;20843;-56
2022/01/27 07:47:52;;;;;;;44.43;22.00;;;4.10;99.90;;;;;;5093818;28;20179;-56
2022/01/27 07:50:18;;;;;;;41.60;21.63;;;4.10;1.00;;;;;;5094045;28;20180;-56
2022/01/27 07:52:44;;;;;;;52.90;22.10;;;4.10;99.90;;;;;;5094076;28;20187;-56
2022/01/27 07:55:10;;;;;;;44.77;21.10;;;4.00;99.90;;;;;;5094154;28;20187;-56
2022/01/27 07:57:36;;;;;;;49.53;23.40;;;4.00;1.00;;;;;;5094080;28;20222;-56
2022/01/27 08:00:06;;;;;;;40.70;20.03;;;4.00;99.90;;;;;;5094184;28;20414;-56
2022/01/27 08:02:32;;;;;;;41.63;20.03;;;4.10;99.90;;;;;;5086925;28;20755;-55
2022/01/27 08:04:58;;;;;;;52.10;22.23;;;4.00;99.90;;;;;;5094776;28;20426;-56
2022/01/27 08:07:23;;;;;;;42.80;21.60;;;4.00;1.00;;;;;;5094457;28;20234;-56
2022/01/27 08:09:49;;;;;;;47.97;20.77;;;4.00;18.80;;;;;;5076211;28;20303;-56
2022/01/27 08:12:15;;;;;;;43.83;20.70;;;4.00;99.90;;;;;;5084374;28;20211;-56
2022/01/27 08:14:41;;;;;;;52.20;23.20;;;4.10;19.00;;;;;;5094558;28;20183;-56
2022/01/27 08:17:07;;;;;;;45.20;22.50;;;4.10;99.90;;;;;;5094602;28;20650;-56
2022/01/27 08:19:32;;;;;;;40.30;20.93;;;4.10;99.90;;;;;;5094391;28;20418;-56
2022/01/27 08:21:58;;;;;;;50.30;22.83;;;4.00;99.90;;;;;;5094702;28;20759;-56
2022/01/27 08:24:24;;;;;;;45.80;21.63;;;4.10;99.90;;;;;;5094247;28;20186;-56
2022/01/27 08:26:53;;;;;;;53.10;25.53;;;4.10;1.00;;;;;;5094416;28;20195;-56
2022/01/27 08:29:22;;;;;;;54.33;23.07;;;4.10;1.00;;;;;;5094234;28;20461;-56
2022/01/27 08:31:58;;;;;;;51.57;21.63;;;4.10;1.00;;;;;;5094080;28;20422;-55
2022/01/27 08:34:38;;;;;;;48.77;23.87;;;4.10;99.90;;;;;;5094133;28;20409;-55
2022/01/27 08:37:17;;;;;;;45.27;21.40;;;4.10;1.00;;;;;;5093539;28;20912;-55
2022/01/27 08:39:43;;;;;;;44.00;21.93;;;4.20;99.90;;;;;;5094004;28;20428;-56
2022/01/27 08:42:09;;;;;;;48.00;23.43;;;4.10;8.20;;;;;;5084026;28;20752;-55
2022/01/27 08:44:36;;;;;;;54.70;23.90;;;4.20;99.90;;;;;;5094073;28;20483;-55
2022/01/27 08:47:04;;;;;;;49.10;21.77;;;4.30;99.90;;;;;;5094095;28;20436;-55
2022/01/27 08:49:29;;;;;;;41.07;20.30;;;4.20;99.90;;;;;;5093823;28;20462;-55
2022/01/27 08:51:56;;;;;;;50.20;24.37;;;4.20;1.00;;;;;;5094006;28;20947;-55
2022/01/27 08:54:22;;;;;;;49.80;22.10;;;4.20;42.60;;;;;;5093842;28;20195;-55
2022/01/27 08:56:47;;;;;;;51.63;22.93;;;4.30;99.90;;;;;;5093791;28;20421;-55
2022/01/27 08:59:14;;;;;;;46.20;23.47;;;4.30;99.90;;;;;;5093900;28;20786;-55
2022/01/27 09:01:40;;;;;;;40.80;23.20;;;4.30;99.90;;;;;;5085452;28;20186;-55
2022/01/27 09:04:07;;;;;;;44.57;22.73;;;4.30;43.10;;;;;;5093606;28;20424;-55
2022/01/27 09:06:33;;;;;;;42.80;21.53;;;4.30;99.90;;;;;;5093622;28;20418;-55
2022/01/27 09:08:59;;;;;;;54.57;22.60;;;4.30;99.90;;;;;;5093058;28;20504;-55
2022/01/27 09:11:25;;;;;;;59.97;25.50;;;4.40;99.90;;;;;;5083217;28;20537;-55
2022/01/27 09:13:53;;;;;;;51.70;23.70;;;4.40;1.00;;;;;;5093455;28;20426;-55
2022/01/27 09:16:19;;;;;;;40.00;21.53;;;4.30;1.00;;;;;;5075142;28;20684;-56
2022/01/27 09:18:45;;;;;;;52.00;23.60;;;4.40;99.90;;;;;;5093121;28;20588;-55
2022/01/27 09:21:17;;;;;;;37.53;21.10;;;4.40;99.90;;;;;;5093339;28;20187;-55
2022/01/27 09:23:43;;;;;;;50.63;21.80;;;4.40;1.00;;;;;;5093153;28;20229;-55
2022/01/27 09:26:26;;;;;;;43.00;21.90;;;4.50;1.00;;;;;;5093178;28;20418;-56
2022/01/27 09:28:52;;;;;;;45.10;20.43;;;4.50;1.00;;;;;;5093065;28;20291;-55
2022/01/27 09:31:18;;;;;;;47.50;21.27;;;4.50;1.00;;;;;;5074753;28;20505;-55
2022/01/27 09:33:43;;;;;;;40.90;19.63;;;4.50;1.00;;;;;;5093155;28;20255;-56
2022/01/27 09:36:12;;;;;;;34.10;19.10;;;4.60;1.00;;;;;;5093234;28;20540;-56
2022/01/27 09:38:38;;;;;;;44.10;20.20;;;4.60;99.90;;;;;;5092848;28;20187;-56
2022/01/27 09:41:06;;;;;;;42.27;18.90;;;4.60;98.60;;;;;;5090796;28;20418;-56
2022/01/27 09:43:33;;;;;;;40.60;20.20;;;4.60;1.00;;;;;;5074571;28;20582;-55
2022/01/27 09:45:59;;;;;;;31.40;18.53;;;4.70;1.00;;;;;;5092972;28;20946;-55
2022/01/27 09:48:26;;;;;;;35.23;17.63;;;4.70;1.00;;;;;;5091688;28;20450;-55
2022/01/27 09:53:23;;;;;;;33.53;18.03;;;4.70;1.00;;;;;;5092599;28;20421;-55
2022/01/27 09:55:49;;;;;;;32.50;15.40;;;4.70;1.00;;;;;;5092728;28;20443;-56
2022/01/27 09:58:14;;;;;;;30.97;15.80;;;4.70;58.80;;;;;;5092581;28;20245;-56
2022/01/27 10:00:40;;;;;;;27.93;16.20;;;4.70;99.90;;;;;;5089144;28;20184;-56
2022/01/27 10:03:07;;;;;;;26.20;15.30;;;4.70;99.90;;;;;;5092582;28;20267;-55
2022/01/27 10:05:33;;;;;;;34.60;14.30;;;4.80;87.40;;;;;;5092504;28;20263;-56
2022/01/27 10:08:12;;;;;;;25.90;14.70;;;4.80;74.00;;;;;;5091849;28;20540;-55
2022/01/27 10:10:46;;;;;;;29.93;15.23;;;4.80;1.00;;;;;;5083539;28;20433;-56
2022/01/27 10:13:36;;;;;;;25.43;14.13;;;4.80;99.90;;;;;;5092348;28;20814;-55
2022/01/27 10:16:02;;;;;;;24.03;14.00;;;4.80;1.00;;;;;;5092289;28;20523;-56
2022/01/27 10:18:35;;;;;;;23.87;13.60;;;4.90;16.10;;;;;;5084184;28;20425;-56
2022/01/27 10:21:05;;;;;;;25.03;13.90;;;4.90;1.00;;;;;;5092224;28;20421;-55
2022/01/27 10:23:33;;;;;;;25.60;13.30;;;4.80;1.00;;;;;;5084273;28;20446;-56
2022/01/27 10:26:13;;;;;;;20.20;12.27;;;4.90;26.40;;;;;;5092152;28;20414;-56
2022/01/27 10:31:23;;;;;;;17.87;12.07;;;4.90;1.00;;;;;;5092138;28;20433;-56
2022/01/27 10:34:02;;;;;;;21.53;12.93;;;4.90;99.90;;;;;;5092037;28;20421;-55
2022/01/27 10:36:32;;;;;;;22.70;12.97;;;5.00;1.00;;;;;;5083719;28;20420;-55
2022/01/27 10:39:12;;;;;;;26.23;12.07;;;5.00;98.30;;;;;;5092007;28;20456;-55
2022/01/27 10:42:00;;;;;;;23.90;12.20;;;5.00;1.00;;;;;;5076775;28;20421;-55
2022/01/27 10:44:46;;;;;;;30.57;13.60;;;5.00;99.90;;;;;;5091403;28;20429;-56
2022/01/27 10:47:22;;;;;;;22.77;12.67;;;5.00;99.90;;;;;;5091878;28;20413;-55
2022/01/27 10:50:07;;;;;;;27.30;14.77;;;5.00;99.90;;;;;;5091548;28;20532;-56
2022/01/27 10:55:09;;;;;;;20.97;13.37;;;5.10;1.00;;;;;;5091616;28;20406;-56
2022/01/27 10:57:34;;;;;;;25.50;13.13;;;5.10;99.90;;;;;;5084584;28;20183;-56
2022/01/27 11:00:10;;;;;;;25.07;13.67;;;5.10;99.90;;;;;;5087922;28;20429;-56
2022/01/27 11:03:03;;;;;;;18.63;10.97;;;5.10;99.90;;;;;;5084307;28;20641;-56
2022/01/27 11:05:33;;;;;;;22.80;12.60;;;5.10;99.90;;;;;;5083683;28;20421;-56
2022/01/27 11:07:59;;;;;;;24.17;13.17;;;5.10;99.90;;;;;;5091343;28;20889;-55
2022/01/27 11:10:26;;;;;;;20.00;11.70;;;5.10;99.90;;;;;;5086097;28;21249;-55
2022/01/27 11:12:53;;;;;;;16.20;11.80;;;5.20;99.90;;;;;;5086821;28;20432;-55
2022/01/27 11:15:20;;;;;;;21.10;13.60;;;5.20;99.90;;;;;;5073045;28;20440;-55
2022/01/27 11:17:47;;;;;;;17.20;10.80;;;5.20;99.90;;;;;;5091510;28;20414;-56
2022/01/27 11:20:35;;;;;;;15.50;11.10;;;5.20;99.90;;;;;;5091501;28;20417;-56
2022/01/27 11:23:24;;;;;;;16.90;10.83;;;5.20;99.90;;;;;;5091314;28;20419;-56
2022/01/27 11:25:51;;;;;;;15.20;10.90;;;5.30;99.90;;;;;;5085504;28;20409;-56
2022/01/27 11:28:18;;;;;;;16.60;11.90;;;5.30;99.90;;;;;;5091237;28;20443;-56
2022/01/27 11:31:09;;;;;;;12.50;9.20;;;5.30;1.00;;;;;;5091292;28;20425;-56
2022/01/27 11:33:36;;;;;;;16.40;10.00;;;5.40;1.00;;;;;;5084104;28;20406;-56
2022/01/27 11:36:19;;;;;;;10.90;9.10;;;5.40;99.90;;;;;;5091168;28;20410;-56
2022/01/27 11:38:46;;;;;;;13.43;9.60;;;5.30;99.90;;;;;;5085269;28;20417;-56
2022/01/27 11:41:44;;;;;;;11.93;9.47;;;5.30;99.90;;;;;;5089410;28;20418;-56
2022/01/27 11:44:23;;;;;;;11.47;9.30;;;5.40;37.50;;;;;;5091143;28;20744;-56
2022/01/27 11:47:11;;;;;;;11.97;9.77;;;5.40;1.00;;;;;;5091240;28;20502;-55
2022/01/27 11:52:33;;;;;;;12.40;9.33;;;5.40;99.90;;;;;;5091110;28;20956;-56
2022/01/27 11:55:24;;;;;;;12.47;8.73;;;5.40;99.90;;;;;;5090998;28;20426;-56
2022/01/27 11:57:51;;;;;;;11.20;9.63;;;5.50;62.40;;;;;;5085945;28;20418;-56
2022/01/27 12:00:21;;;;;;;13.20;9.70;;;5.50;99.90;;;;;;5088437;28;20453;-56
2022/01/27 12:03:01;;;;;;;11.83;10.63;;;5.50;99.90;;;;;;5084852;28;20425;-56
2022/01/27 12:05:32;;;;;;;11.60;9.70;;;5.30;99.90;;;;;;5082236;28;20409;-56
2022/01/27 12:08:13;;;;;;;14.17;10.87;;;5.50;99.90;;;;;;5071882;28;20461;-56
2022/01/27 12:10:53;;;;;;;14.43;11.40;;;5.50;99.90;;;;;;5081743;28;20498;-56
2022/01/27 12:13:29;;;;;;;13.60;10.53;;;5.60;99.90;;;;;;5093833;28;20426;-55
2022/01/27 12:19:10;;;;;;;11.27;9.50;;;5.60;99.90;;;;;;5088214;28;20422;-56
2022/01/27 12:21:51;;;;;;;12.30;10.17;;;5.60;99.90;;;;;;5086800;28;20417;-56
2022/01/27 12:24:22;;;;;;;13.63;11.03;;;5.60;1.00;;;;;;5093493;28;20444;-56
2022/01/27 12:26:59;;;;;;;11.00;9.80;;;5.70;1.00;;;;;;5093796;28;20441;-55
2022/01/27 12:29:45;;;;;;;13.23;10.33;;;5.70;99.90;;;;;;5093660;28;20522;-56
2022/01/27 12:32:16;;;;;;;11.60;10.33;;;5.70;99.90;;;;;;5093735;28;20443;-55
2022/01/27 12:35:06;;;;;;;10.83;9.73;;;5.70;99.90;;;;;;5093608;28;20471;-55
2022/01/27 12:37:34;;;;;;;12.50;11.10;;;5.70;1.00;;;;;;5076879;28;20427;-55
2022/01/27 12:40:19;;;;;;;12.20;10.43;;;5.70;1.00;;;;;;5085442;28;20425;-55
2022/01/27 12:43:01;;;;;;;15.90;11.27;;;5.70;1.00;;;;;;5087676;28;20418;-56
2022/01/27 12:45:30;;;;;;;12.30;9.90;;;5.70;1.00;;;;;;5093584;28;20509;-56
2022/01/27 12:47:59;;;;;;;10.40;9.30;;;5.70;99.90;;;;;;5075145;28;20970;-56
2022/01/27 12:50:25;;;;;;;12.33;9.50;;;5.70;99.90;;;;;;5093711;28;20464;-56
2022/01/27 12:52:57;;;;;;;11.13;9.90;;;5.70;99.90;;;;;;5093620;28;20414;-57
2022/01/27 12:55:28;;;;;;;11.63;10.40;;;5.70;99.90;;;;;;5093229;28;20654;-55
2022/01/27 12:58:02;;;;;;;10.93;9.87;;;5.70;99.90;;;;;;5093346;28;21014;-56
2022/01/27 13:00:30;;;;;;;11.17;9.97;;;5.80;99.90;;;;;;5081435;28;20427;-60
2022/01/27 13:03:00;;;;;;;13.50;12.10;;;5.80;99.90;;;;;;5066010;28;20505;-60
2022/01/27 13:05:36;;;;;;;13.40;10.97;;;5.80;1.00;;;;;;5093021;28;20418;-55
2022/01/27 13:08:10;;;;;;;15.73;11.67;;;5.80;99.90;;;;;;5089008;28;20457;-55
2022/01/27 13:10:37;;;;;;;12.00;10.40;;;5.80;99.90;;;;;;5077223;28;20464;-55
2022/01/27 13:13:15;;;;;;;13.20;10.33;;;5.90;99.90;;;;;;5078840;28;20415;-56
2022/01/27 13:15:41;;;;;;;10.87;9.77;;;5.80;1.00;;;;;;5076778;28;20417;-55
2022/01/27 13:18:21;;;;;;;10.13;9.13;;;5.90;1.00;;;;;;5078516;28;20445;-55
2022/01/27 13:20:52;;;;;;;10.37;9.37;;;5.90;99.90;;;;;;5084882;28;20490;-56
2022/01/27 13:23:25;;;;;;;10.10;9.17;;;5.90;1.00;;;;;;5086418;28;20430;-57
2022/01/27 13:25:55;;;;;;;8.83;7.80;;;5.90;1.00;;;;;;5079615;28;20427;-55
2022/01/27 13:28:31;;;;;;;13.47;9.80;;;5.90;1.00;;;;;;5084044;28;20485;-55
2022/01/27 13:31:02;;;;;;;10.63;9.33;;;5.90;1.00;;;;;;5073957;28;20418;-55
2022/01/27 13:33:34;;;;;;;9.33;8.33;;;5.90;1.00;;;;;;5075752;28;20426;-56
2022/01/27 13:35:59;;;;;;;10.30;9.30;;;6.00;1.00;;;;;;5076650;28;20423;-55
2022/01/27 13:38:30;;;;;;;13.00;10.07;;;5.90;99.90;;;;;;5080804;28;20912;-56